Time;durP1;ratioP1;P1;durP2;ratioP2;P2;SDS_P1;SDS_P2;PMS_P1;PMS_P2;Temp;Humidity;BMP_temperature;BMP_pressure;BME280_temperature;BME280_humidity;BME280_pressure;Samples;Min_cycle;Max_cycle;Signal;HPM_P1;HPM_P2
2021/06/29 00:01:12;;;;;;;57.47;33.30;;;;;;;;;;4436461;32;20669;-76
2021/06/29 00:03:37;;;;;;;53.67;30.02;;;;;;;;;;4423779;32;20173;-76
2021/06/29 00:06:03;;;;;;;44.57;27.07;;;;;;;;;;4437704;32;20203;-76
2021/06/29 00:08:28;;;;;;;48.97;29.60;;;;;;;;;;4436398;32;20729;-76
2021/06/29 00:10:53;;;;;;;46.35;27.90;;;;;;;;;;4436067;32;20624;-75
2021/06/29 00:13:20;;;;;;;45.78;27.83;;;;;;;;;;4421810;32;20162;-75
2021/06/29 00:15:45;;;;;;;45.97;27.20;;;;;;;;;;4436158;32;20196;-76
2021/06/29 00:18:10;;;;;;;51.30;29.10;;;;;;;;;;4423428;32;20597;-76
2021/06/29 00:20:36;;;;;;;59.00;31.97;;;;;;;;;;4436990;32;20134;-76
2021/06/29 00:23:02;;;;;;;66.43;33.55;;;;;;;;;;4437064;32;20221;-76
2021/06/29 00:25:27;;;;;;;45.60;27.83;;;;;;;;;;4421914;32;20153;-76
2021/06/29 00:27:52;;;;;;;50.30;28.55;;;;;;;;;;4436264;32;20152;-76
2021/06/29 00:30:17;;;;;;;42.38;25.90;;;;;;;;;;4436907;32;20186;-76
2021/06/29 00:32:43;;;;;;;58.13;33.90;;;;;;;;;;4437229;32;20220;-78
2021/06/29 00:35:09;;;;;;;50.90;29.40;;;;;;;;;;4422449;32;20158;-75
2021/06/29 00:37:34;;;;;;;52.88;28.60;;;;;;;;;;4435780;32;20164;-75
2021/06/29 00:39:59;;;;;;;46.00;27.15;;;;;;;;;;4436318;32;20217;-75
2021/06/29 00:42:24;;;;;;;46.72;27.73;;;;;;;;;;4435796;32;20145;-75
2021/06/29 00:44:49;;;;;;;57.05;30.85;;;;;;;;;;4435493;32;20677;-76
2021/06/29 00:47:15;;;;;;;55.27;27.17;;;;;;;;;;4422450;32;20219;-75
2021/06/29 00:49:40;;;;;;;61.35;33.63;;;;;;;;;;4421895;32;20253;-75
2021/06/29 00:52:15;;;;;;;64.07;34.47;;;;;;;;;;4436068;32;20317;-76
2021/06/29 00:54:41;;;;;;;67.68;35.72;;;;;;;;;;4421744;32;20161;-77
2021/06/29 00:57:07;;;;;;;73.43;34.72;;;;;;;;;;4421283;32;20196;-76
2021/06/29 00:59:32;;;;;;;60.97;31.73;;;;;;;;;;4421468;32;20150;-76
2021/06/29 01:01:57;;;;;;;57.85;32.15;;;;;;;;;;4437151;32;20134;-76
2021/06/29 01:04:23;;;;;;;50.12;28.98;;;;;;;;;;4436972;32;20470;-76
2021/06/29 01:06:48;;;;;;;54.22;30.10;;;;;;;;;;4421514;32;20515;-76
2021/06/29 01:09:13;;;;;;;66.05;33.78;;;;;;;;;;4435135;32;20149;-76
2021/06/29 01:11:39;;;;;;;58.13;30.80;;;;;;;;;;4436736;32;20118;-76
2021/06/29 01:14:14;;;;;;;49.43;27.57;;;;;;;;;;4423288;32;20153;-76
2021/06/29 01:16:39;;;;;;;60.80;33.90;;;;;;;;;;4421227;32;20279;-76
2021/06/29 01:19:05;;;;;;;54.95;31.60;;;;;;;;;;4437200;32;20474;-75
2021/06/29 01:21:45;;;;;;;60.72;32.63;;;;;;;;;;4426603;32;20166;-75
2021/06/29 01:24:13;;;;;;;75.97;36.03;;;;;;;;;;4441333;32;20145;-76
2021/06/29 01:26:44;;;;;;;66.37;35.60;;;;;;;;;;4440471;32;20564;-78
2021/06/29 01:29:10;;;;;;;89.75;40.45;;;;;;;;;;4440080;32;20126;-77
2021/06/29 01:31:36;;;;;;;69.55;34.97;;;;;;;;;;4440119;32;20528;-75
2021/06/29 01:34:02;;;;;;;50.38;28.73;;;;;;;;;;4439778;32;20527;-76
2021/06/29 01:36:32;;;;;;;58.55;32.05;;;;;;;;;;4438324;32;20134;-76
2021/06/29 01:38:57;;;;;;;57.83;29.67;;;;;;;;;;4440069;32;20171;-76
2021/06/29 01:41:24;;;;;;;48.22;27.02;;;;;;;;;;4438940;32;20126;-76
2021/06/29 01:44:04;;;;;;;47.30;27.48;;;;;;;;;;4424026;32;20153;-76
2021/06/29 01:46:33;;;;;;;53.72;29.63;;;;;;;;;;4438354;32;20126;-77
2021/06/29 01:48:58;;;;;;;53.95;30.08;;;;;;;;;;4437903;32;20138;-76
2021/06/29 01:51:23;;;;;;;52.27;27.17;;;;;;;;;;4439649;32;20160;-76
2021/06/29 01:53:50;;;;;;;47.47;26.35;;;;;;;;;;4423922;32;20585;-76
2021/06/29 01:56:15;;;;;;;47.20;24.50;;;;;;;;;;4439497;32;20204;-76
2021/06/29 01:58:49;;;;;;;39.92;22.77;;;;;;;;;;4439551;32;20168;-76
2021/06/29 02:01:15;;;;;;;41.08;24.45;;;;;;;;;;4437927;32;20114;-77
2021/06/29 02:03:40;;;;;;;43.60;22.83;;;;;;;;;;4438259;32;20459;-77
2021/06/29 02:06:05;;;;;;;37.53;22.23;;;;;;;;;;4437734;32;20191;-77
2021/06/29 02:08:30;;;;;;;38.27;22.67;;;;;;;;;;4438836;32;20581;-76
2021/06/29 02:10:56;;;;;;;44.08;21.73;;;;;;;;;;4423826;32;20288;-76
2021/06/29 02:13:21;;;;;;;38.40;21.67;;;;;;;;;;4439959;32;20130;-76
2021/06/29 02:15:46;;;;;;;34.03;19.87;;;;;;;;;;4437620;32;20217;-76
2021/06/29 02:18:11;;;;;;;37.07;20.50;;;;;;;;;;4438177;32;20247;-76
2021/06/29 02:20:36;;;;;;;38.97;19.83;;;;;;;;;;4438546;32;20221;-77
2021/06/29 02:23:02;;;;;;;37.08;18.48;;;;;;;;;;4439287;32;20447;-77
2021/06/29 02:25:27;;;;;;;32.90;18.90;;;;;;;;;;4424002;32;20157;-77
2021/06/29 02:27:52;;;;;;;33.63;19.92;;;;;;;;;;4437480;32;20182;-77
2021/06/29 02:30:18;;;;;;;33.13;18.70;;;;;;;;;;4439144;32;20130;-77
2021/06/29 02:32:43;;;;;;;41.20;21.05;;;;;;;;;;4437811;32;20216;-77
2021/06/29 02:35:08;;;;;;;42.38;22.73;;;;;;;;;;4439053;32;20129;-76
2021/06/29 02:37:33;;;;;;;36.40;20.48;;;;;;;;;;4437659;32;20138;-77
2021/06/29 02:39:59;;;;;;;40.95;21.83;;;;;;;;;;4437852;32;20122;-77
2021/06/29 02:42:24;;;;;;;40.12;22.15;;;;;;;;;;4437257;32;20274;-77
2021/06/29 02:44:49;;;;;;;49.43;25.17;;;;;;;;;;4424568;32;20597;-77
2021/06/29 02:47:15;;;;;;;41.37;22.92;;;;;;;;;;4437646;32;20244;-77
2021/06/29 02:49:41;;;;;;;49.30;24.37;;;;;;;;;;4423197;32;20187;-76
2021/06/29 02:52:06;;;;;;;46.67;24.98;;;;;;;;;;4423395;32;20708;-77
2021/06/29 02:54:31;;;;;;;40.95;24.17;;;;;;;;;;4423337;32;20169;-76
2021/06/29 02:56:57;;;;;;;38.50;22.33;;;;;;;;;;4423228;32;20162;-77
2021/06/29 02:59:23;;;;;;;49.20;26.83;;;;;;;;;;4437179;32;20130;-77
2021/06/29 03:01:48;;;;;;;45.50;26.35;;;;;;;;;;4437236;32;20161;-77
2021/06/29 03:04:14;;;;;;;46.33;24.67;;;;;;;;;;4438908;32;20141;-75
2021/06/29 03:06:39;;;;;;;58.90;29.12;;;;;;;;;;4423269;32;20153;-76
2021/06/29 03:09:05;;;;;;;46.80;25.83;;;;;;;;;;4422923;32;20196;-76
2021/06/29 03:11:30;;;;;;;46.92;25.45;;;;;;;;;;4438186;32;20156;-76
2021/06/29 03:13:56;;;;;;;44.90;24.35;;;;;;;;;;4436859;32;20191;-76
2021/06/29 03:16:22;;;;;;;48.63;27.60;;;;;;;;;;4424657;32;20157;-76
2021/06/29 03:18:47;;;;;;;45.63;25.75;;;;;;;;;;4422624;32;20496;-77
2021/06/29 03:21:12;;;;;;;43.78;24.83;;;;;;;;;;4423313;32;20157;-76
2021/06/29 03:23:38;;;;;;;52.55;28.42;;;;;;;;;;4436962;32;20232;-77
2021/06/29 03:26:03;;;;;;;49.25;27.87;;;;;;;;;;4438442;32;20247;-76
2021/06/29 03:28:28;;;;;;;47.80;26.90;;;;;;;;;;4437657;32;20148;-76
2021/06/29 03:30:54;;;;;;;55.55;28.73;;;;;;;;;;4436773;32;20141;-76
2021/06/29 03:33:19;;;;;;;51.28;28.25;;;;;;;;;;4438412;32;20152;-77
2021/06/29 03:35:44;;;;;;;67.30;34.72;;;;;;;;;;4438692;32;20197;-76
2021/06/29 03:38:09;;;;;;;49.72;26.77;;;;;;;;;;4437006;32;20240;-76
2021/06/29 03:40:34;;;;;;;59.07;32.17;;;;;;;;;;4436726;32;20122;-77
2021/06/29 03:43:00;;;;;;;50.67;29.02;;;;;;;;;;4436024;32;20294;-77
2021/06/29 03:45:25;;;;;;;59.03;30.67;;;;;;;;;;4422220;32;20314;-77
2021/06/29 03:47:50;;;;;;;62.70;33.87;;;;;;;;;;4436813;32;20122;-78
2021/06/29 03:50:15;;;;;;;43.90;27.27;;;;;;;;;;4436753;32;20276;-77
2021/06/29 03:52:40;;;;;;;60.42;32.08;;;;;;;;;;4436837;32;20121;-78
2021/06/29 03:55:06;;;;;;;67.77;33.97;;;;;;;;;;4436459;32;20665;-77
2021/06/29 03:57:32;;;;;;;51.40;28.62;;;;;;;;;;4437429;32;20263;-78
2021/06/29 03:59:57;;;;;;;46.78;26.27;;;;;;;;;;4437556;32;20134;-78
2021/06/29 04:02:22;;;;;;;42.95;25.62;;;;;;;;;;4436515;32;20125;-78
2021/06/29 04:04:47;;;;;;;46.83;25.77;;;;;;;;;;4436353;32;20148;-77
2021/06/29 04:07:12;;;;;;;45.27;26.80;;;;;;;;;;4435971;32;20163;-77
2021/06/29 04:09:38;;;;;;;70.65;35.63;;;;;;;;;;4436103;32;20248;-77
2021/06/29 04:12:04;;;;;;;65.00;34.28;;;;;;;;;;4422589;32;20724;-77
2021/06/29 04:14:29;;;;;;;66.97;32.88;;;;;;;;;;4436749;32;20186;-78
2021/06/29 04:16:55;;;;;;;65.85;35.55;;;;;;;;;;4436702;32;20164;-77
2021/06/29 04:19:20;;;;;;;62.60;34.97;;;;;;;;;;4422242;32;20355;-77
2021/06/29 04:21:45;;;;;;;71.82;37.00;;;;;;;;;;4436174;32;20596;-77
2021/06/29 04:24:10;;;;;;;54.47;29.45;;;;;;;;;;4435748;32;20202;-77
2021/06/29 04:26:35;;;;;;;74.30;38.35;;;;;;;;;;4421665;32;20193;-77
2021/06/29 04:29:01;;;;;;;52.67;30.00;;;;;;;;;;4437115;32;20130;-77
2021/06/29 04:31:27;;;;;;;78.72;36.25;;;;;;;;;;4437527;32;20515;-77
2021/06/29 04:33:53;;;;;;;53.08;31.67;;;;;;;;;;4437448;32;20126;-77
2021/06/29 04:36:18;;;;;;;72.55;38.65;;;;;;;;;;4423652;32;20177;-77
2021/06/29 04:38:43;;;;;;;75.30;40.20;;;;;;;;;;4421343;32;20161;-77
2021/06/29 04:41:08;;;;;;;62.57;33.43;;;;;;;;;;4435860;32;20152;-76
2021/06/29 04:43:37;;;;;;;69.37;36.53;;;;;;;;;;4421906;32;20245;-76
2021/06/29 04:46:03;;;;;;;63.92;34.80;;;;;;;;;;4435732;32;20129;-77
2021/06/29 04:48:28;;;;;;;93.80;52.13;;;;;;;;;;4421177;32;20184;-77
2021/06/29 04:50:53;;;;;;;69.20;36.83;;;;;;;;;;4435301;32;20477;-78
2021/06/29 04:53:18;;;;;;;66.53;38.00;;;;;;;;;;4434705;32;20218;-77
2021/06/29 04:55:43;;;;;;;75.95;37.65;;;;;;;;;;4436536;32;20302;-79
2021/06/29 04:58:09;;;;;;;72.07;36.60;;;;;;;;;;4421497;32;20497;-76
2021/06/29 05:00:34;;;;;;;74.28;36.38;;;;;;;;;;4422814;32;20363;-76
2021/06/29 05:02:59;;;;;;;76.32;37.33;;;;;;;;;;4436137;32;20148;-77
2021/06/29 05:05:24;;;;;;;79.90;38.20;;;;;;;;;;4421540;32;20176;-76
2021/06/29 05:07:50;;;;;;;75.73;37.77;;;;;;;;;;4435337;32;20126;-77
2021/06/29 05:10:15;;;;;;;88.50;40.03;;;;;;;;;;4435416;32;20757;-77
2021/06/29 05:12:40;;;;;;;72.03;37.55;;;;;;;;;;4435467;32;20179;-78
2021/06/29 05:15:07;;;;;;;88.60;39.58;;;;;;;;;;4435426;32;20157;-77
2021/06/29 05:17:32;;;;;;;100.35;41.83;;;;;;;;;;4421586;32;20203;-76
2021/06/29 05:19:57;;;;;;;96.30;42.50;;;;;;;;;;4421095;32;20152;-77
2021/06/29 05:22:22;;;;;;;91.28;42.85;;;;;;;;;;4423156;32;20181;-76
2021/06/29 05:24:48;;;;;;;83.60;38.42;;;;;;;;;;4435567;32;20133;-77
2021/06/29 05:27:13;;;;;;;84.55;39.85;;;;;;;;;;4437139;32;20228;-77
2021/06/29 05:29:38;;;;;;;91.05;38.45;;;;;;;;;;4435014;32;20583;-78
2021/06/29 05:32:03;;;;;;;107.60;46.20;;;;;;;;;;4420604;32;20523;-77
2021/06/29 05:34:29;;;;;;;77.50;38.75;;;;;;;;;;4435023;32;20364;-77
2021/06/29 05:36:54;;;;;;;84.45;40.72;;;;;;;;;;4434201;32;20494;-78
2021/06/29 05:39:19;;;;;;;89.55;43.03;;;;;;;;;;4420926;32;20533;-77
2021/06/29 05:41:44;;;;;;;79.10;36.78;;;;;;;;;;4435733;32;20619;-78
2021/06/29 05:44:10;;;;;;;84.62;41.70;;;;;;;;;;4434002;32;20138;-77
2021/06/29 05:46:35;;;;;;;83.40;37.97;;;;;;;;;;4435642;32;20343;-78
2021/06/29 05:49:02;;;;;;;85.38;41.03;;;;;;;;;;4421620;32;20161;-79
2021/06/29 05:51:28;;;;;;;80.93;39.25;;;;;;;;;;4435579;32;20146;-78
2021/06/29 05:53:53;;;;;;;71.80;36.72;;;;;;;;;;4437544;32;20748;-77
2021/06/29 05:56:18;;;;;;;97.25;44.03;;;;;;;;;;4435127;32;20146;-78
2021/06/29 05:58:43;;;;;;;87.62;40.67;;;;;;;;;;4435126;32;20197;-77
2021/06/29 06:01:09;;;;;;;85.60;38.97;;;;;;;;;;4437020;32;20145;-78
2021/06/29 06:03:34;;;;;;;94.35;43.90;;;;;;;;;;4434683;32;20236;-78
2021/06/29 06:05:59;;;;;;;101.30;45.67;;;;;;;;;;4422155;32;20196;-78
2021/06/29 06:08:25;;;;;;;77.60;38.00;;;;;;;;;;4437687;32;20133;-78
2021/06/29 06:10:51;;;;;;;117.18;48.17;;;;;;;;;;4436918;32;20509;-78
2021/06/29 06:13:16;;;;;;;103.40;44.22;;;;;;;;;;4438704;32;20173;-78
2021/06/29 06:15:41;;;;;;;79.25;38.80;;;;;;;;;;4435685;32;20217;-78
2021/06/29 06:18:07;;;;;;;95.93;40.83;;;;;;;;;;4435851;32;20204;-77
2021/06/29 06:20:35;;;;;;;101.03;41.33;;;;;;;;;;4437604;32;20458;-77
2021/06/29 06:23:01;;;;;;;113.28;45.05;;;;;;;;;;4436884;32;20551;-77
2021/06/29 06:25:26;;;;;;;98.20;41.75;;;;;;;;;;4438236;32;20263;-78
2021/06/29 06:27:51;;;;;;;111.82;47.50;;;;;;;;;;4437413;32;20189;-77
2021/06/29 06:30:18;;;;;;;108.68;49.03;;;;;;;;;;4437877;32;20169;-78
2021/06/29 06:32:43;;;;;;;119.65;48.40;;;;;;;;;;4423159;32;20236;-76
2021/06/29 06:35:09;;;;;;;115.07;51.65;;;;;;;;;;4436861;32;20506;-74
2021/06/29 06:37:34;;;;;;;115.32;50.28;;;;;;;;;;4437049;32;20554;-73
2021/06/29 06:39:59;;;;;;;122.13;52.53;;;;;;;;;;4422817;32;20154;-73
2021/06/29 06:42:24;;;;;;;85.77;44.30;;;;;;;;;;4436944;32;20251;-72
2021/06/29 06:44:49;;;;;;;90.93;44.27;;;;;;;;;;4438460;32;20540;-72
2021/06/29 06:47:14;;;;;;;81.07;40.50;;;;;;;;;;4436641;32;20240;-72
2021/06/29 06:49:40;;;;;;;78.35;38.33;;;;;;;;;;4436860;32;20137;-71
2021/06/29 06:52:05;;;;;;;78.67;40.10;;;;;;;;;;4435920;32;20829;-72
2021/06/29 06:54:30;;;;;;;85.50;42.55;;;;;;;;;;4436323;32;20221;-72
2021/06/29 06:56:56;;;;;;;91.90;42.17;;;;;;;;;;4436205;32;20212;-72
2021/06/29 06:59:21;;;;;;;118.47;49.33;;;;;;;;;;4438160;32;20580;-73
2021/06/29 07:01:46;;;;;;;76.75;40.45;;;;;;;;;;4436753;32;20570;-73
2021/06/29 07:04:12;;;;;;;92.15;44.20;;;;;;;;;;4436321;32;20183;-72
2021/06/29 07:06:37;;;;;;;98.25;47.53;;;;;;;;;;4437481;32;20129;-72
2021/06/29 07:09:02;;;;;;;114.62;49.63;;;;;;;;;;4437316;32;20206;-71
2021/06/29 07:11:28;;;;;;;72.35;38.42;;;;;;;;;;4437165;32;20125;-72
2021/06/29 07:13:53;;;;;;;64.70;37.88;;;;;;;;;;4437513;32;20145;-72
2021/06/29 07:16:19;;;;;;;77.15;39.65;;;;;;;;;;4421500;32;20173;-72
2021/06/29 07:18:44;;;;;;;68.75;40.15;;;;;;;;;;4435442;32;20153;-72
2021/06/29 07:21:10;;;;;;;61.47;36.10;;;;;;;;;;4437144;32;20179;-72
2021/06/29 07:23:35;;;;;;;76.95;39.90;;;;;;;;;;4436040;32;20596;-72
2021/06/29 07:26:00;;;;;;;56.30;33.50;;;;;;;;;;4437782;32;20129;-72
2021/06/29 07:28:25;;;;;;;62.42;37.10;;;;;;;;;;4436471;32;20777;-71
2021/06/29 07:30:50;;;;;;;56.87;34.50;;;;;;;;;;4435820;32;20165;-71
2021/06/29 07:33:16;;;;;;;54.77;34.70;;;;;;;;;;4435522;32;20386;-71
2021/06/29 07:35:41;;;;;;;66.22;36.33;;;;;;;;;;4436664;32;20244;-73
2021/06/29 07:38:07;;;;;;;61.75;37.60;;;;;;;;;;4436845;32;20259;-71
2021/06/29 07:40:33;;;;;;;53.65;33.22;;;;;;;;;;4436295;32;20227;-72
2021/06/29 07:42:58;;;;;;;53.38;32.22;;;;;;;;;;4437856;32;20164;-73
2021/06/29 07:45:26;;;;;;;56.58;33.88;;;;;;;;;;4436400;32;20137;-72
2021/06/29 07:47:51;;;;;;;62.38;37.88;;;;;;;;;;4436722;32;20168;-72
2021/06/29 07:50:16;;;;;;;62.72;37.75;;;;;;;;;;4437035;32;20130;-72
2021/06/29 07:52:41;;;;;;;63.47;37.17;;;;;;;;;;4422754;32;20158;-72
2021/06/29 07:55:07;;;;;;;55.45;34.15;;;;;;;;;;4436486;32;20141;-72
2021/06/29 07:57:32;;;;;;;71.55;38.92;;;;;;;;;;4436383;32;20167;-73
2021/06/29 07:59:57;;;;;;;64.27;38.47;;;;;;;;;;4437465;32;20179;-72
2021/06/29 08:02:22;;;;;;;64.07;39.25;;;;;;;;;;4438083;32;20638;-73
2021/06/29 08:04:49;;;;;;;64.40;38.35;;;;;;;;;;4435744;32;20121;-73
2021/06/29 08:07:14;;;;;;;59.22;38.85;;;;;;;;;;4437332;32;20133;-73
2021/06/29 08:09:39;;;;;;;65.82;38.55;;;;;;;;;;4436820;32;20630;-73
2021/06/29 08:12:05;;;;;;;56.43;36.60;;;;;;;;;;4437878;32;20501;-73
2021/06/29 08:14:30;;;;;;;53.92;36.13;;;;;;;;;;4423567;32;20283;-72
2021/06/29 08:16:55;;;;;;;58.70;37.20;;;;;;;;;;4435698;32;20130;-72
2021/06/29 08:19:20;;;;;;;51.00;35.30;;;;;;;;;;4435442;32;20226;-72
2021/06/29 08:21:45;;;;;;;60.50;41.00;;;;;;;;;;4421532;32;20756;-72
2021/06/29 08:24:10;;;;;;;47.10;33.83;;;;;;;;;;4435916;32;20186;-72
2021/06/29 08:26:36;;;;;;;51.37;34.90;;;;;;;;;;4437312;32;20284;-73
2021/06/29 08:29:01;;;;;;;51.22;33.65;;;;;;;;;;4436195;32;20156;-73
2021/06/29 08:31:26;;;;;;;55.88;37.53;;;;;;;;;;4435820;32;20182;-73
2021/06/29 08:33:54;;;;;;;56.50;38.08;;;;;;;;;;4435116;32;20132;-72
2021/06/29 08:36:20;;;;;;;49.20;33.47;;;;;;;;;;4436735;32;20164;-72
2021/06/29 08:38:45;;;;;;;48.53;34.70;;;;;;;;;;4436751;32;20133;-73
2021/06/29 08:41:11;;;;;;;38.50;28.92;;;;;;;;;;4436697;32;20134;-73
2021/06/29 08:43:38;;;;;;;39.38;27.55;;;;;;;;;;4436820;32;20195;-72
2021/06/29 08:46:03;;;;;;;38.70;28.83;;;;;;;;;;4436816;32;20558;-73
2021/06/29 08:48:28;;;;;;;40.20;30.17;;;;;;;;;;4437369;32;20180;-73
2021/06/29 08:50:53;;;;;;;34.55;27.80;;;;;;;;;;4422103;32;20207;-72
2021/06/29 08:53:18;;;;;;;35.03;28.17;;;;;;;;;;4437278;32;20546;-73
2021/06/29 08:55:48;;;;;;;33.15;26.12;;;;;;;;;;4436251;32;20289;-73
2021/06/29 08:58:17;;;;;;;23.98;20.67;;;;;;;;;;4436386;32;20202;-72
2021/06/29 09:00:42;;;;;;;27.75;22.35;;;;;;;;;;4435521;32;20122;-72
2021/06/29 09:03:07;;;;;;;22.85;19.45;;;;;;;;;;4437188;32;20236;-72
2021/06/29 09:05:32;;;;;;;25.27;20.27;;;;;;;;;;4435085;32;20150;-72
2021/06/29 09:07:59;;;;;;;23.87;19.73;;;;;;;;;;4436239;32;20199;-72
2021/06/29 09:10:25;;;;;;;26.50;21.58;;;;;;;;;;4434551;32;20245;-72
2021/06/29 09:12:51;;;;;;;22.10;19.10;;;;;;;;;;4435506;32;20163;-71
2021/06/29 09:15:35;;;;;;;25.30;20.00;;;;;;;;;;4420712;32;20217;-72
2021/06/29 09:18:06;;;;;;;22.27;18.92;;;;;;;;;;4435078;32;20199;-72
2021/06/29 09:20:32;;;;;;;20.08;16.37;;;;;;;;;;4435312;32;20508;-72
2021/06/29 09:23:06;;;;;;;18.55;16.55;;;;;;;;;;4436585;32;20550;-72
2021/06/29 09:25:31;;;;;;;18.45;15.45;;;;;;;;;;4435916;32;20171;-72
2021/06/29 09:27:57;;;;;;;17.80;15.15;;;;;;;;;;4435246;32;20149;-73
2021/06/29 09:30:42;;;;;;;22.10;17.83;;;;;;;;;;4436528;32;20130;-73
2021/06/29 09:33:09;;;;;;;17.12;14.75;;;;;;;;;;4420924;32;20455;-74
2021/06/29 09:35:35;;;;;;;15.70;13.82;;;;;;;;;;4436793;32;20205;-74
2021/06/29 09:38:00;;;;;;;15.65;13.88;;;;;;;;;;4434575;32;20475;-75
2021/06/29 09:40:27;;;;;;;14.35;11.73;;;;;;;;;;4437170;32;20582;-75
2021/06/29 09:42:52;;;;;;;15.25;11.68;;;;;;;;;;4439382;32;20523;-75
2021/06/29 09:45:34;;;;;;;15.43;11.48;;;;;;;;;;4437923;32;20212;-76
2021/06/29 09:48:00;;;;;;;15.38;12.07;;;;;;;;;;4424749;32;20161;-75
2021/06/29 09:50:37;;;;;;;15.02;11.18;;;;;;;;;;4427144;32;20513;-76
2021/06/29 09:53:21;;;;;;;13.02;10.55;;;;;;;;;;4423114;32;20267;-76
2021/06/29 09:55:47;;;;;;;12.30;10.75;;;;;;;;;;4423830;32;20511;-77
2021/06/29 09:58:14;;;;;;;12.40;10.27;;;;;;;;;;4437160;32;20141;-75
2021/06/29 10:00:49;;;;;;;19.12;14.05;;;;;;;;;;4423168;32;20186;-74
2021/06/29 10:03:18;;;;;;;12.98;10.88;;;;;;;;;;4422470;32;20129;-74
2021/06/29 10:05:44;;;;;;;13.55;10.82;;;;;;;;;;4419927;32;20146;-75
2021/06/29 10:08:09;;;;;;;14.05;11.10;;;;;;;;;;4410520;32;20581;-75
2021/06/29 10:10:34;;;;;;;14.82;10.82;;;;;;;;;;4432964;32;20661;-75
2021/06/29 10:13:13;;;;;;;14.23;10.85;;;;;;;;;;4428263;32;20194;-75
2021/06/29 10:15:38;;;;;;;15.23;11.00;;;;;;;;;;4421604;32;20126;-76
2021/06/29 10:18:04;;;;;;;14.63;11.82;;;;;;;;;;4423391;32;20232;-76
2021/06/29 10:20:37;;;;;;;14.93;11.18;;;;;;;;;;4408496;32;20158;-75
2021/06/29 10:23:03;;;;;;;15.85;12.02;;;;;;;;;;4422995;32;20122;-75
2021/06/29 10:25:28;;;;;;;18.02;11.38;;;;;;;;;;4421571;32;20156;-75
2021/06/29 10:27:53;;;;;;;20.67;14.10;;;;;;;;;;4422583;32;20152;-76
2021/06/29 10:30:19;;;;;;;16.35;12.05;;;;;;;;;;4422228;32;20238;-76
2021/06/29 10:32:44;;;;;;;16.33;12.35;;;;;;;;;;4422948;32;20125;-76
2021/06/29 10:35:09;;;;;;;17.27;12.68;;;;;;;;;;4407806;32;20158;-76
2021/06/29 10:37:37;;;;;;;16.30;12.87;;;;;;;;;;4421634;32;20204;-76
2021/06/29 10:40:03;;;;;;;21.75;15.25;;;;;;;;;;4421333;32;20218;-77
2021/06/29 10:42:29;;;;;;;23.05;15.75;;;;;;;;;;4422259;32;20156;-76
2021/06/29 10:44:54;;;;;;;16.37;13.00;;;;;;;;;;4407941;32;20158;-77
2021/06/29 10:47:24;;;;;;;18.95;14.65;;;;;;;;;;4409028;32;20181;-77
2021/06/29 10:49:50;;;;;;;23.83;16.15;;;;;;;;;;4422812;32;20286;-76
2021/06/29 10:52:22;;;;;;;19.90;14.77;;;;;;;;;;4407050;32;20153;-76
2021/06/29 10:54:48;;;;;;;26.10;16.62;;;;;;;;;;4407517;32;20204;-76
2021/06/29 10:57:18;;;;;;;22.75;17.48;;;;;;;;;;4421263;32;20161;-77
2021/06/29 10:59:46;;;;;;;25.85;18.17;;;;;;;;;;4407665;32;20189;-77
2021/06/29 11:02:13;;;;;;;29.50;19.10;;;;;;;;;;4422633;32;20164;-77
2021/06/29 11:04:49;;;;;;;29.45;19.42;;;;;;;;;;4420868;32;20573;-77
2021/06/29 11:07:27;;;;;;;27.95;18.23;;;;;;;;;;4410294;32;20218;-77
2021/06/29 11:09:53;;;;;;;29.45;19.08;;;;;;;;;;4421911;32;20196;-77
2021/06/29 11:12:25;;;;;;;30.23;19.92;;;;;;;;;;4437041;32;20176;-77
2021/06/29 11:14:52;;;;;;;30.80;20.30;;;;;;;;;;4438197;32;20156;-76
2021/06/29 11:17:18;;;;;;;30.70;20.98;;;;;;;;;;4422429;32;20496;-76
2021/06/29 11:20:02;;;;;;;29.33;19.45;;;;;;;;;;4437071;32;20156;-76
2021/06/29 11:22:46;;;;;;;36.30;21.48;;;;;;;;;;4422607;32;20149;-76
2021/06/29 11:25:11;;;;;;;27.40;17.85;;;;;;;;;;4436990;32;20145;-76
2021/06/29 11:27:55;;;;;;;23.43;16.40;;;;;;;;;;4423752;32;20184;-76
2021/06/29 11:30:39;;;;;;;26.50;15.00;;;;;;;;;;4436101;32;20642;-76
2021/06/29 11:33:23;;;;;;;23.15;14.02;;;;;;;;;;4435444;32;20133;-76
2021/06/29 11:35:48;;;;;;;21.12;12.93;;;;;;;;;;4436092;32;20156;-76
2021/06/29 11:38:13;;;;;;;20.70;12.27;;;;;;;;;;4435141;32;20134;-77
2021/06/29 11:40:38;;;;;;;24.73;11.80;;;;;;;;;;4421848;32;20192;-77
2021/06/29 11:43:12;;;;;;;17.92;10.90;;;;;;;;;;4436038;32;20254;-78
2021/06/29 11:45:37;;;;;;;17.73;10.10;;;;;;;;;;4436930;32;20513;-76
2021/06/29 11:48:03;;;;;;;14.52;9.63;;;;;;;;;;4436323;32;20137;-76
2021/06/29 11:50:39;;;;;;;13.85;9.40;;;;;;;;;;4435232;32;20500;-76
2021/06/29 11:53:19;;;;;;;13.98;9.15;;;;;;;;;;4436724;32;20232;-77
2021/06/29 11:55:45;;;;;;;14.20;8.98;;;;;;;;;;4427952;32;20180;-77
2021/06/29 11:58:10;;;;;;;13.95;9.38;;;;;;;;;;4420199;32;20134;-77
2021/06/29 12:00:38;;;;;;;15.73;9.27;;;;;;;;;;4419947;32;20313;-78
2021/06/29 12:03:04;;;;;;;15.70;9.15;;;;;;;;;;4419867;32;20156;-78
2021/06/29 12:05:32;;;;;;;23.27;10.65;;;;;;;;;;4420676;32;20146;-78
2021/06/29 12:07:59;;;;;;;16.90;10.20;;;;;;;;;;4407457;32;20150;-77
2021/06/29 12:10:32;;;;;;;21.52;10.15;;;;;;;;;;4420476;32;20146;-76
2021/06/29 12:13:07;;;;;;;17.42;10.20;;;;;;;;;;4420064;32;20244;-77
2021/06/29 12:15:32;;;;;;;19.37;11.00;;;;;;;;;;4419800;32;20226;-77
2021/06/29 12:17:59;;;;;;;16.73;10.30;;;;;;;;;;4420819;32;20150;-78
2021/06/29 12:20:27;;;;;;;12.02;8.40;;;;;;;;;;4420126;32;20180;-77
2021/06/29 12:22:52;;;;;;;17.08;9.13;;;;;;;;;;4435693;32;20133;-77
2021/06/29 12:25:22;;;;;;;12.60;8.23;;;;;;;;;;4435397;32;20196;-77
2021/06/29 12:27:49;;;;;;;15.00;8.32;;;;;;;;;;4422113;32;20176;-78
2021/06/29 12:30:41;;;;;;;17.62;8.95;;;;;;;;;;4436022;32;20160;-78
2021/06/29 12:33:25;;;;;;;13.57;8.52;;;;;;;;;;4431628;32;20235;-78
2021/06/29 12:35:54;;;;;;;15.50;8.95;;;;;;;;;;4436018;32;20137;-78
2021/06/29 12:38:23;;;;;;;17.67;9.40;;;;;;;;;;4433125;32;20173;-78
2021/06/29 12:40:51;;;;;;;17.40;9.38;;;;;;;;;;4433965;32;20160;-78
2021/06/29 12:43:23;;;;;;;11.85;8.05;;;;;;;;;;4421785;32;20485;-78
2021/06/29 12:45:49;;;;;;;10.82;7.30;;;;;;;;;;4421276;32;20169;-78
2021/06/29 12:48:17;;;;;;;10.57;7.82;;;;;;;;;;4421232;32;20665;-78
2021/06/29 12:50:42;;;;;;;15.18;9.13;;;;;;;;;;4435464;32;20133;-77
2021/06/29 12:53:07;;;;;;;16.47;11.00;;;;;;;;;;4436164;32;20413;-78
2021/06/29 12:55:32;;;;;;;17.17;12.60;;;;;;;;;;4435358;32;20225;-77
2021/06/29 12:58:02;;;;;;;17.50;12.82;;;;;;;;;;4437017;32;20240;-77
2021/06/29 13:00:27;;;;;;;19.52;13.93;;;;;;;;;;4435447;32;20192;-78
2021/06/29 13:02:52;;;;;;;17.40;12.65;;;;;;;;;;4436731;32;20141;-76
2021/06/29 13:05:19;;;;;;;17.05;12.15;;;;;;;;;;4421873;32;20669;-77
2021/06/29 13:07:44;;;;;;;14.43;11.25;;;;;;;;;;4420992;32;20150;-77
2021/06/29 13:10:09;;;;;;;16.00;12.30;;;;;;;;;;4415451;32;20150;-77
2021/06/29 13:12:34;;;;;;;15.00;12.25;;;;;;;;;;4400598;32;20229;-77
2021/06/29 13:15:04;;;;;;;17.50;11.93;;;;;;;;;;4427159;32;20486;-76
2021/06/29 13:17:29;;;;;;;15.05;11.27;;;;;;;;;;4414431;32;20176;-76
2021/06/29 13:20:05;;;;;;;14.15;11.73;;;;;;;;;;4430675;32;20547;-76
2021/06/29 13:22:41;;;;;;;15.52;11.45;;;;;;;;;;4421510;32;20165;-77
2021/06/29 13:25:07;;;;;;;15.85;12.20;;;;;;;;;;4437957;32;20324;-77
2021/06/29 13:27:32;;;;;;;17.27;12.05;;;;;;;;;;4424142;32;20228;-77
2021/06/29 13:30:08;;;;;;;17.20;12.25;;;;;;;;;;4438295;32;20156;-77
2021/06/29 13:32:35;;;;;;;16.70;10.02;;;;;;;;;;4438692;32;20171;-77
2021/06/29 13:35:01;;;;;;;17.05;10.80;;;;;;;;;;4438174;32;20428;-77
2021/06/29 13:37:27;;;;;;;14.52;10.68;;;;;;;;;;4438933;32;20173;-77
2021/06/29 13:39:53;;;;;;;14.02;10.60;;;;;;;;;;4436921;32;20184;-76
2021/06/29 13:42:22;;;;;;;16.08;9.57;;;;;;;;;;4423249;32;20149;-77
2021/06/29 13:45:01;;;;;;;12.95;8.40;;;;;;;;;;4438607;32;20141;-77
2021/06/29 13:47:27;;;;;;;9.90;7.43;;;;;;;;;;4437180;32;20462;-77
2021/06/29 13:50:04;;;;;;;10.27;7.62;;;;;;;;;;4423228;32;20238;-76
2021/06/29 13:52:30;;;;;;;7.80;5.93;;;;;;;;;;4423052;32;20149;-77
2021/06/29 13:55:04;;;;;;;5.85;4.65;;;;;;;;;;4437796;32;20473;-77
2021/06/29 13:57:29;;;;;;;8.73;5.60;;;;;;;;;;4439172;32;20168;-77
2021/06/29 13:59:54;;;;;;;5.77;4.50;;;;;;;;;;4423253;32;20240;-77
2021/06/29 14:02:29;;;;;;;6.97;4.45;;;;;;;;;;4439419;32;20242;-76
2021/06/29 14:04:55;;;;;;;4.95;4.37;;;;;;;;;;4438363;32;20171;-76
2021/06/29 14:07:20;;;;;;;5.60;4.35;;;;;;;;;;4435746;32;20146;-77
2021/06/29 14:09:46;;;;;;;6.60;4.28;;;;;;;;;;4435794;32;20194;-77
2021/06/29 14:12:22;;;;;;;5.57;3.87;;;;;;;;;;4408358;32;20211;-77
2021/06/29 14:14:48;;;;;;;6.07;4.55;;;;;;;;;;4418302;32;20203;-77
2021/06/29 14:17:13;;;;;;;5.10;4.22;;;;;;;;;;4438955;32;20160;-78